Portada
METAR-TAF:

METAR-TAF

Aeroports :

São Gabriel da Cachoeira, Amazones, Brasil

latitud: 00-08S, longitud: 067-05W, altitud: 90 m

Observació

L'informe es va fer fa 16 hores i 30 minuts, a les 19:00 UTC
Vent 3 kt del Sud, variant entre Sud/Sud-Est i Sud-Oest
Temperatura 25°C
Humitat 94%
Pressió 1010 hPa
Visibilitat: 8000 m
Núvols disperses a una alçada de 2500 ft
Escasses núvols a una alçada de 3000 ft, Cumulonimbus.
Cel ennuvolat a una alçada de 9000 ft
tempesta, pluja

METAR: SBUA 241900Z 18003KT 150V220 8000 -TSRA SCT025 FEW030CB BKN090 25/24 Q1010

Hora: 07:30 (11:30 UTC)


TAF: manca

Observacions i pronòstics meteorològics de més de 4000 aeroports (METAR i TAF).

Les estacions disponibles són els punts grocs i vermells al mapa.

Posi el ratolí al punt desitjat per veure el nom de l'estació.

Feu clic per veure les observacions i els pronòstics meteorològics.

Per canviar el mapa: feu clic els botons verds amb una creu de color negre per apropar; al botó verd amb un guió per allunyar la imatge; o en les fletxes verdes per a mapes adjacents.


METAR-TAF: